Time;durP1;ratioP1;P1;durP2;ratioP2;P2;SDS_P1;SDS_P2;PMS_P1;PMS_P2;Temp;Humidity;BMP_temperature;BMP_pressure;BME280_temperature;BME280_humidity;BME280_pressure;Samples;Min_cycle;Max_cycle;Signal;HPM_P1;HPM_P2
2024/03/09 00:01:34;;;;;;;48.63;21.13;;;;;;;9.02;44.75;100618.81;4936943;28;100269;-90
2024/03/09 00:04:01;;;;;;;44.75;21.75;;;;;;;9.02;44.64;100606.69;4939874;28;96750;-90
2024/03/09 00:06:27;;;;;;;43.08;19.70;;;;;;;9.03;44.79;100613.63;4924129;28;96845;-90
2024/03/09 00:08:52;;;;;;;43.17;20.58;;;;;;;9.02;44.87;100608.41;4923420;28;98810;-91
2024/03/09 00:11:18;;;;;;;49.58;22.23;;;;;;;9.03;44.85;100605.81;4923816;28;100149;-91
2024/03/09 00:13:46;;;;;;;44.30;21.10;;;;;;;9.03;45.04;100603.22;4924807;28;96706;-91
2024/03/09 00:16:11;;;;;;;44.58;21.73;;;;;;;9.04;44.93;100598.91;4924831;28;96904;-92
2024/03/09 00:18:38;;;;;;;47.33;22.30;;;;;;;9.03;45.06;100599.75;4923613;28;99191;-91
2024/03/09 00:21:08;;;;;;;50.83;22.77;;;;;;;9.03;44.90;100597.16;4924043;28;100057;-90
2024/03/09 00:23:34;;;;;;;49.28;23.40;;;;;;;9.03;45.05;100600.63;4939831;28;96674;-91
2024/03/09 00:26:00;;;;;;;41.40;19.17;;;;;;;9.03;45.15;100592.81;4923785;28;96753;-90
2024/03/09 00:28:28;;;;;;;46.78;21.77;;;;;;;9.02;45.25;100588.47;4923277;28;100388;-91
2024/03/09 00:30:54;;;;;;;44.42;20.60;;;;;;;9.02;45.12;100590.19;4920264;28;100147;-90
2024/03/09 00:33:23;;;;;;;44.78;19.48;;;;;;;9.00;45.29;100584.09;4936735;28;96715;-90
2024/03/09 00:35:55;;;;;;;46.75;20.88;;;;;;;8.99;45.31;100582.38;4938698;28;96810;-92
2024/03/09 00:38:20;;;;;;;50.70;22.08;;;;;;;8.99;45.28;100583.22;4920592;28;100099;-91
2024/03/09 00:40:46;;;;;;;43.97;18.23;;;;;;;8.99;45.45;100577.16;4927605;28;100124;-91
2024/03/09 00:43:11;;;;;;;47.65;21.05;;;;;;;8.98;45.43;100572.78;4940004;28;96612;-91
2024/03/09 00:45:37;;;;;;;48.13;20.30;;;;;;;8.98;45.54;100568.47;4924543;28;96794;-91
2024/03/09 00:48:03;;;;;;;48.90;22.58;;;;;;;8.97;45.34;100566.72;4923622;28;99960;-91
2024/03/09 00:50:28;;;;;;;48.35;20.13;;;;;;;8.94;45.34;100562.34;4923270;28;100028;-90
2024/03/09 00:52:54;;;;;;;46.63;21.25;;;;;;;8.93;45.43;100562.31;4922350;28;96822;-90
2024/03/09 00:55:21;;;;;;;46.53;21.48;;;;;;;8.92;45.45;100560.56;4939486;28;96820;-91
2024/03/09 00:57:50;;;;;;;49.33;21.63;;;;;;;8.90;45.59;100552.75;4939079;28;99993;-91
2024/03/09 01:00:18;;;;;;;50.13;22.25;;;;;;;8.88;45.33;100551.84;4922518;28;100326;-90
2024/03/09 01:02:49;;;;;;;48.08;19.15;;;;;;;8.88;45.55;100569.19;4923150;28;96714;-90
2024/03/09 01:05:19;;;;;;;48.85;22.15;;;;;;;8.85;45.65;100572.59;4923169;28;96853;-90
2024/03/09 01:07:45;;;;;;;48.20;21.42;;;;;;;8.82;45.58;100566.50;4923198;28;100943;-90
2024/03/09 01:10:11;;;;;;;56.45;23.45;;;;;;;8.81;45.42;100557.81;4939640;28;99681;-91
2024/03/09 01:12:37;;;;;;;45.72;20.73;;;;;;;8.79;45.60;100566.44;4939614;28;96781;-91
2024/03/09 01:15:06;;;;;;;46.50;20.73;;;;;;;8.76;45.63;100543.88;4939592;28;96798;-90
2024/03/09 01:17:35;;;;;;;45.28;20.73;;;;;;;8.73;45.88;100552.50;4922786;28;100677;-90
2024/03/09 01:20:08;;;;;;;51.28;21.35;;;;;;;8.71;45.88;100551.59;4923583;28;100148;-90
2024/03/09 01:22:35;;;;;;;49.80;20.35;;;;;;;8.66;45.89;100553.28;4925911;28;96966;-91
2024/03/09 01:25:05;;;;;;;50.28;21.73;;;;;;;8.62;45.82;100538.44;4924808;28;96845;-91
2024/03/09 01:27:31;;;;;;;47.70;20.85;;;;;;;8.58;45.90;100540.13;4924852;28;100737;-91
2024/03/09 01:29:59;;;;;;;48.53;21.73;;;;;;;8.55;46.09;100536.59;4921622;28;100247;-91
2024/03/09 01:32:25;;;;;;;54.42;24.50;;;;;;;8.54;46.15;100527.06;4937433;28;96702;-90
2024/03/09 01:34:51;;;;;;;47.33;20.73;;;;;;;8.52;46.16;100527.03;4940349;28;96903;-90
2024/03/09 01:37:19;;;;;;;52.70;22.95;;;;;;;8.50;45.68;100531.34;4940041;28;100508;-91
2024/03/09 01:39:49;;;;;;;47.67;21.38;;;;;;;8.48;46.17;100521.75;4942823;28;97521;-90
2024/03/09 01:42:21;;;;;;;50.10;20.90;;;;;;;8.45;46.25;100525.19;4942797;28;96722;-91
2024/03/09 01:44:50;;;;;;;47.60;19.63;;;;;;;8.43;46.43;100515.59;4927429;28;96755;-90
2024/03/09 01:51:04;;;;;;;50.25;21.02;;;;;;;8.34;46.27;100516.31;4969432;28;96777;-91
2024/03/09 01:53:31;;;;;;;47.28;20.90;;;;;;;8.31;46.22;100504.16;4930507;28;96900;-94
2024/03/09 01:55:59;;;;;;;50.25;22.58;;;;;;;8.28;46.64;100506.69;4943513;28;97547;-94
2024/03/09 01:58:25;;;;;;;51.47;21.75;;;;;;;8.24;46.49;100504.91;4932776;28;100428;-94
2024/03/09 02:00:56;;;;;;;47.05;20.08;;;;;;;8.21;46.64;100497.03;4931440;28;99144;-93
2024/03/09 02:03:25;;;;;;;55.95;22.98;;;;;;;8.19;46.83;100498.75;4950438;28;96867;-93
2024/03/09 02:05:54;;;;;;;46.85;21.67;;;;;;;8.19;46.64;100497.00;4929903;28;96962;-93
2024/03/09 02:08:20;;;;;;;48.83;21.23;;;;;;;8.16;46.83;100498.69;4933148;28;100686;-93
2024/03/09 02:10:47;;;;;;;50.35;23.05;;;;;;;8.14;46.75;100498.66;4946054;28;96957;-93
2024/03/09 02:13:15;;;;;;;51.92;20.83;;;;;;;8.12;46.61;100489.97;4953063;28;96773;-93
2024/03/09 02:15:47;;;;;;;48.97;19.95;;;;;;;8.09;46.96;100497.72;4927049;28;96861;-93
2024/03/09 02:18:13;;;;;;;51.88;21.08;;;;;;;8.07;46.75;100486.41;4940107;28;97750;-93
2024/03/09 02:20:39;;;;;;;48.47;20.90;;;;;;;8.03;47.02;100492.41;4930393;28;100131;-92
2024/03/09 02:23:08;;;;;;;47.70;19.27;;;;;;;8.03;46.74;100486.34;4932027;28;96860;-93
2024/03/09 02:25:35;;;;;;;48.75;22.23;;;;;;;8.00;47.11;100479.38;4943192;28;96784;-93
2024/03/09 02:28:02;;;;;;;53.22;21.88;;;;;;;7.99;47.35;100472.44;4924452;28;100249;-93
2024/03/09 02:30:29;;;;;;;48.03;19.70;;;;;;;7.98;47.28;100476.72;4954052;28;97815;-93
2024/03/09 02:32:55;;;;;;;51.10;22.10;;;;;;;7.99;47.33;100469.84;4941936;28;96849;-93
2024/03/09 02:35:21;;;;;;;51.40;20.13;;;;;;;7.98;47.24;100466.34;4939265;28;96958;-92
2024/03/09 02:37:47;;;;;;;54.97;24.80;;;;;;;7.98;47.46;100468.06;4939883;28;100858;-93
2024/03/09 02:40:12;;;;;;;51.17;20.92;;;;;;;7.95;47.40;100470.63;4940421;28;100117;-92
2024/03/09 02:43:03;;;;;;;53.58;21.67;;;;;;;7.94;47.45;100466.28;4951132;28;96914;-93
2024/03/09 02:45:27;;;;;;;49.85;21.27;;;;;;;7.94;47.36;100468.88;4944435;28;96816;-93
2024/03/09 02:47:54;;;;;;;51.95;22.52;;;;;;;7.94;47.42;100461.09;4927417;28;99786;-93
2024/03/09 02:50:19;;;;;;;50.78;21.85;;;;;;;7.92;47.46;100460.19;4931158;28;100084;-93
2024/03/09 02:52:45;;;;;;;48.88;19.30;;;;;;;7.92;47.72;100452.41;4920887;28;96865;-92
2024/03/09 02:55:11;;;;;;;50.33;21.40;;;;;;;7.92;47.68;100447.22;4935319;28;96866;-93
2024/03/09 02:57:37;;;;;;;54.03;21.08;;;;;;;7.90;47.63;100447.19;4951637;28;99124;-92
2024/03/09 03:00:06;;;;;;;50.60;19.80;;;;;;;7.89;47.60;100445.41;4930010;28;99109;-94
2024/03/09 03:05:16;;;;;;;53.88;22.40;;;;;;;7.88;47.90;100447.97;4940605;28;96753;-93
2024/03/09 03:07:42;;;;;;;49.53;20.83;;;;;;;7.87;47.96;100441.94;4922215;28;99036;-94
2024/03/09 03:10:08;;;;;;;50.65;22.55;;;;;;;7.87;47.99;100444.53;4937095;28;98991;-94
2024/03/09 03:12:34;;;;;;;48.83;22.08;;;;;;;7.87;48.31;100447.13;4918518;28;96865;-94
2024/03/09 03:15:01;;;;;;;51.88;22.02;;;;;;;7.87;47.96;100438.47;4924396;28;96856;-94
2024/03/09 03:17:27;;;;;;;49.55;20.73;;;;;;;7.87;48.27;100441.94;4918797;28;100491;-93
2024/03/09 03:19:53;;;;;;;51.95;22.38;;;;;;;7.87;48.16;100441.94;4936432;28;98292;-94
2024/03/09 03:22:19;;;;;;;50.95;20.27;;;;;;;7.90;48.15;100439.38;4937360;28;96802;-93
2024/03/09 03:24:45;;;;;;;45.03;19.95;;;;;;;7.91;48.21;100443.72;4921120;28;96816;-93
2024/03/09 03:27:11;;;;;;;43.97;18.45;;;;;;;7.91;48.39;100433.34;4936215;28;98912;-93
2024/03/09 03:29:36;;;;;;;51.67;21.63;;;;;;;7.93;48.27;100435.97;4933016;28;98929;-92
2024/03/09 03:32:04;;;;;;;52.30;23.73;;;;;;;7.96;48.30;100441.22;4923235;28;96777;-92
2024/03/09 03:34:31;;;;;;;48.35;20.63;;;;;;;7.98;48.48;100444.69;4921234;28;96902;-91
2024/03/09 03:36:56;;;;;;;52.30;22.35;;;;;;;7.98;48.42;100434.31;4940125;28;96811;-91
2024/03/09 03:39:22;;;;;;;49.95;20.40;;;;;;;7.98;48.44;100435.19;4937955;28;99105;-91
2024/03/09 03:41:52;;;;;;;52.65;19.40;;;;;;;7.99;48.51;100431.75;4922827;28;96603;-91
2024/03/09 03:44:17;;;;;;;49.47;22.73;;;;;;;8.00;48.36;100435.22;4922977;28;96783;-91
2024/03/09 03:46:43;;;;;;;46.70;19.27;;;;;;;8.00;48.32;100443.00;4921299;28;100956;-90
2024/03/09 03:49:10;;;;;;;44.90;20.02;;;;;;;8.00;48.38;100443.91;4938390;28;99895;-91
2024/03/09 03:51:36;;;;;;;49.50;20.70;;;;;;;8.00;48.50;100433.50;4922543;28;96702;-90
2024/03/09 03:54:02;;;;;;;53.03;20.85;;;;;;;8.00;48.45;100433.50;4934292;28;96695;-90
2024/03/09 03:56:27;;;;;;;42.45;18.95;;;;;;;7.99;48.55;100430.88;4934822;28;100279;-91
2024/03/09 03:58:53;;;;;;;43.75;19.13;;;;;;;8.01;48.56;100429.19;4935288;28;100673;-91
2024/03/09 04:01:23;;;;;;;51.00;20.17;;;;;;;8.02;48.53;100425.72;4935117;28;96649;-91
2024/03/09 04:03:49;;;;;;;45.95;19.48;;;;;;;8.03;48.59;100426.59;4935760;28;96849;-91
2024/03/09 04:06:15;;;;;;;49.05;20.15;;;;;;;8.04;48.50;100421.44;4918892;28;100669;-91
2024/03/09 04:08:41;;;;;;;48.40;20.02;;;;;;;8.07;48.48;100420.59;4935240;28;97486;-92
2024/03/09 04:11:06;;;;;;;48.65;19.17;;;;;;;8.06;48.67;100419.75;4934419;28;96712;-91
2024/03/09 04:13:32;;;;;;;51.60;20.80;;;;;;;8.08;48.73;100418.03;4919580;28;96755;-89
2024/03/09 04:16:01;;;;;;;47.08;20.33;;;;;;;8.08;48.71;100412.84;4932445;28;100480;-90
2024/03/09 04:18:56;;;;;;;43.40;20.70;;;;;;;8.08;48.77;100414.56;4933240;28;97769;-90
2024/03/09 04:21:31;;;;;;;;;;;;;;;8.07;48.44;100407.63;4934139;28;96715;-90
2024/03/09 04:23:56;;;;;;;52.60;18.83;;;;;;;8.09;48.35;100403.31;4937533;28;96631;-90
2024/03/09 04:26:22;;;;;;;47.95;20.50;;;;;;;8.09;48.64;100404.22;4936068;28;100124;-89
2024/03/09 04:28:47;;;;;;;49.83;21.00;;;;;;;8.09;48.71;100398.13;4936088;28;100673;-89
2024/03/09 04:31:13;;;;;;;46.58;21.02;;;;;;;8.07;48.76;100398.09;4936982;28;96683;-89
2024/03/09 04:33:40;;;;;;;51.28;19.92;;;;;;;8.06;48.62;100391.16;4937234;28;96710;-90
2024/03/09 04:36:06;;;;;;;51.67;20.33;;;;;;;8.07;49.08;100395.50;4923639;28;100592;-89
2024/03/09 04:38:33;;;;;;;49.38;22.08;;;;;;;8.09;48.89;100393.81;4922429;28;100190;-90
2024/03/09 04:41:06;;;;;;;49.03;21.63;;;;;;;8.09;48.93;100395.53;4936838;28;96611;-90
2024/03/09 04:43:32;;;;;;;51.85;21.33;;;;;;;8.10;48.72;100390.34;4923409;28;96898;-90
2024/03/09 04:45:57;;;;;;;53.72;20.52;;;;;;;8.12;48.98;100390.38;4935890;28;100048;-91
2024/03/09 04:48:23;;;;;;;43.83;19.10;;;;;;;8.11;48.48;100383.44;4935843;28;100303;-90
2024/03/09 04:50:49;;;;;;;44.35;18.80;;;;;;;8.09;48.66;100391.22;4919951;28;96746;-90
2024/03/09 04:53:19;;;;;;;47.92;21.35;;;;;;;8.10;48.51;100392.09;4936430;28;96898;-91
2024/03/09 04:55:48;;;;;;;46.35;20.88;;;;;;;8.09;48.71;100388.63;4936816;28;99953;-90
2024/03/09 04:58:15;;;;;;;47.55;21.05;;;;;;;8.08;48.76;100392.06;4920752;28;100000;-91
2024/03/09 05:00:41;;;;;;;46.72;21.27;;;;;;;8.07;48.71;100385.09;4935979;28;96686;-90
2024/03/09 05:03:07;;;;;;;46.30;19.60;;;;;;;8.07;48.69;100389.44;4921743;28;96843;-90
2024/03/09 05:05:33;;;;;;;47.83;21.15;;;;;;;8.06;48.71;100391.16;4921133;28;100742;-90
2024/03/09 05:07:59;;;;;;;50.15;19.42;;;;;;;8.05;48.78;100380.75;4920845;28;99845;-90
2024/03/09 05:10:26;;;;;;;45.97;19.13;;;;;;;8.02;48.68;100384.16;4936312;28;96637;-91
2024/03/09 05:12:57;;;;;;;46.60;19.60;;;;;;;8.00;48.78;100381.56;4936557;28;96726;-91
2024/03/09 05:15:24;;;;;;;44.22;19.30;;;;;;;8.02;49.02;100381.56;4921232;28;98933;-90
2024/03/09 05:17:52;;;;;;;50.22;22.17;;;;;;;8.01;48.89;100378.09;4920920;28;99800;-91
2024/03/09 05:20:22;;;;;;;46.75;19.35;;;;;;;7.99;48.90;100386.72;4937544;28;96672;-91
2024/03/09 05:22:52;;;;;;;52.22;21.98;;;;;;;7.95;49.19;100379.72;4920822;28;96602;-90
2024/03/09 05:25:18;;;;;;;48.83;20.65;;;;;;;7.92;49.05;100383.16;4937828;28;96867;-90
2024/03/09 05:27:45;;;;;;;48.83;20.90;;;;;;;7.92;49.14;100377.09;4919037;28;99478;-90
2024/03/09 05:30:16;;;;;;;53.17;21.67;;;;;;;7.90;49.12;100368.41;4942709;28;96551;-91
2024/03/09 05:32:53;;;;;;;47.72;20.77;;;;;;;7.87;49.37;100365.75;4932605;28;96722;-91
2024/03/09 05:35:26;;;;;;;46.58;21.92;;;;;;;7.86;49.24;100374.38;4935019;28;100187;-90
2024/03/09 05:37:52;;;;;;;46.05;20.00;;;;;;;7.84;49.33;100363.97;4934274;28;100247;-91
2024/03/09 05:40:19;;;;;;;43.13;20.20;;;;;;;7.85;49.09;100370.06;4933860;28;96598;-91
2024/03/09 05:42:47;;;;;;;48.53;20.23;;;;;;;7.82;49.18;100361.38;4935276;28;96792;-92
2024/03/09 05:45:23;;;;;;;49.60;21.23;;;;;;;7.83;49.52;100362.25;4917736;28;99103;-91
2024/03/09 05:47:54;;;;;;;47.85;22.25;;;;;;;7.81;49.37;100357.00;4935263;28;100150;-91
2024/03/09 05:50:21;;;;;;;44.25;18.60;;;;;;;7.82;49.37;100353.59;4937615;28;96725;-91
2024/03/09 05:52:49;;;;;;;50.25;20.80;;;;;;;7.82;49.38;100356.19;4938014;28;96859;-91
2024/03/09 05:55:16;;;;;;;45.33;20.00;;;;;;;7.82;49.54;100353.59;4938231;28;97742;-91
2024/03/09 05:57:48;;;;;;;49.80;20.92;;;;;;;7.84;49.42;100353.59;4953528;28;100243;-91
2024/03/09 06:00:19;;;;;;;45.47;18.13;;;;;;;7.84;49.45;100348.38;4937710;28;96729;-91
2024/03/09 06:02:46;;;;;;;49.10;22.15;;;;;;;7.85;49.83;100355.34;4938803;28;96643;-91
2024/03/09 06:05:13;;;;;;;47.80;20.33;;;;;;;7.85;49.53;100357.06;4937716;28;97771;-91
2024/03/09 06:07:40;;;;;;;49.58;20.73;;;;;;;7.86;49.77;100356.22;4937175;28;99504;-90
2024/03/09 06:10:28;;;;;;;46.42;20.00;;;;;;;7.87;49.56;100357.97;4941938;28;96879;-90
2024/03/09 06:12:53;;;;;;;45.80;20.35;;;;;;;7.86;49.47;100351.91;4955785;28;96870;-90
2024/03/09 06:15:20;;;;;;;45.22;18.13;;;;;;;7.85;49.63;100344.94;4954493;28;96717;-91
2024/03/09 06:17:47;;;;;;;48.17;20.85;;;;;;;7.84;49.63;100340.59;4939769;28;100298;-90
2024/03/09 06:20:14;;;;;;;50.03;21.40;;;;;;;7.82;49.63;100345.78;4945344;28;96697;-90
2024/03/09 06:22:43;;;;;;;49.20;20.45;;;;;;;7.82;49.49;100340.59;4920581;28;96923;-89
2024/03/09 06:25:22;;;;;;;46.00;20.95;;;;;;;7.82;49.89;100344.91;4937792;28;100196;-91
2024/03/09 06:27:51;;;;;;;43.97;18.88;;;;;;;7.83;49.79;100341.47;4923245;28;100579;-90
2024/03/09 06:30:17;;;;;;;44.03;20.73;;;;;;;7.85;49.74;100334.56;4938578;28;96637;-90
2024/03/09 06:32:46;;;;;;;50.00;21.45;;;;;;;7.86;49.90;100338.03;4940035;28;96839;-90
2024/03/09 06:35:13;;;;;;;45.60;20.77;;;;;;;7.88;49.94;100331.13;4923625;28;100076;-90
2024/03/09 06:37:39;;;;;;;47.75;21.27;;;;;;;7.90;50.00;100329.47;4939882;28;97705;-89
2024/03/09 06:40:06;;;;;;;46.45;19.38;;;;;;;7.92;50.02;100326.03;4920924;28;96872;-90
2024/03/09 06:42:32;;;;;;;46.92;21.58;;;;;;;7.95;50.13;100330.38;4936271;28;96838;-90
2024/03/09 06:44:59;;;;;;;49.08;20.15;;;;;;;7.99;49.96;100330.44;4935872;28;99951;-91
2024/03/09 06:47:24;;;;;;;48.15;18.75;;;;;;;8.04;50.14;100340.03;4935683;28;97431;-91
2024/03/09 06:49:50;;;;;;;46.80;20.25;;;;;;;8.08;50.07;100340.09;4935839;28;96634;-91
2024/03/09 06:52:15;;;;;;;47.28;20.45;;;;;;;8.12;50.41;100338.44;4935856;28;96805;-90
2024/03/09 06:54:41;;;;;;;45.45;18.95;;;;;;;8.18;49.98;100339.41;4937872;28;99682;-91
2024/03/09 06:57:10;;;;;;;45.72;19.45;;;;;;;8.24;50.24;100345.53;4938137;28;100221;-91
2024/03/09 06:59:42;;;;;;;40.45;18.52;;;;;;;8.29;50.29;100352.53;4938108;28;96768;-91
2024/03/09 07:02:08;;;;;;;43.65;19.67;;;;;;;8.36;50.20;100366.50;4938219;28;96790;-90
2024/03/09 07:04:34;;;;;;;42.90;19.80;;;;;;;8.42;50.02;100365.72;4940706;28;100423;-90
2024/03/09 07:06:59;;;;;;;44.95;19.00;;;;;;;8.46;49.97;100367.50;4941575;28;97782;-89
2024/03/09 07:09:25;;;;;;;44.85;18.83;;;;;;;8.49;49.82;100364.97;4942123;28;96691;-90
2024/03/09 07:11:51;;;;;;;43.05;19.05;;;;;;;8.52;49.81;100355.47;4925384;28;96644;-90
2024/03/09 07:14:23;;;;;;;43.38;18.88;;;;;;;8.58;49.93;100355.53;4959145;28;98153;-91
2024/03/09 07:16:49;;;;;;;41.33;19.50;;;;;;;8.66;50.06;100354.78;4940293;28;100153;-90
2024/03/09 07:19:16;;;;;;;39.05;18.83;;;;;;;8.73;50.17;100354.00;4922909;28;96735;-90
2024/03/09 07:21:42;;;;;;;41.88;17.88;;;;;;;8.81;50.28;100360.16;4956524;28;96890;-89
2024/03/09 07:24:07;;;;;;;41.75;19.40;;;;;;;8.90;50.32;100354.19;4957767;28;100487;-90
2024/03/09 07:26:35;;;;;;;44.03;20.63;;;;;;;9.01;50.15;100362.13;4942218;28;100582;-89
2024/03/09 07:29:01;;;;;;;42.20;19.90;;;;;;;9.12;50.30;100363.97;4941456;28;96712;-95
2024/03/09 07:31:27;;;;;;;41.35;19.58;;;;;;;9.23;50.09;100345.00;4941745;28;96703;-93
2024/03/09 07:33:53;;;;;;;41.10;17.88;;;;;;;9.33;50.10;100347.72;4941005;28;98596;-94
2024/03/09 07:36:23;;;;;;;40.97;18.13;;;;;;;9.42;49.77;100348.66;4925186;28;100239;-91
2024/03/09 07:38:51;;;;;;;;;;;;;;;9.45;49.62;100333.94;4937061;28;96707;-90
2024/03/09 07:41:20;;;;;;;39.83;17.05;;;;;;;9.51;49.31;100347.00;4931323;28;96830;-90
2024/03/09 07:43:46;;;;;;;39.20;16.98;;;;;;;9.51;49.06;100336.59;4940387;28;100665;-89
2024/03/09 07:46:12;;;;;;;38.22;18.23;;;;;;;9.52;49.27;100330.53;4922614;28;99960;-91
2024/03/09 07:48:40;;;;;;;38.15;18.00;;;;;;;9.53;49.18;100345.28;4904504;28;96861;-88
2024/03/09 07:51:08;;;;;;;38.13;19.30;;;;;;;9.53;49.06;100337.47;4939247;28;96745;-90
2024/03/09 07:53:34;;;;;;;38.10;17.05;;;;;;;9.56;49.07;100338.38;4937522;28;99218;-91
2024/03/09 07:56:00;;;;;;;39.00;17.80;;;;;;;9.55;48.97;100347.91;4957971;28;99518;-90
2024/03/09 07:58:26;;;;;;;40.55;18.95;;;;;;;9.57;49.16;100346.19;4958694;28;96709;-91
2024/03/09 08:00:51;;;;;;;41.75;18.60;;;;;;;9.60;49.09;100346.22;4960012;28;96547;-91
2024/03/09 08:03:23;;;;;;;39.78;18.35;;;;;;;9.62;48.99;100347.09;4944403;28;99080;-93
2024/03/09 08:05:49;;;;;;;39.33;18.10;;;;;;;9.65;49.20;100349.72;4929425;28;99549;-92
2024/03/09 08:08:17;;;;;;;38.17;16.60;;;;;;;9.64;49.02;100342.81;4938525;28;96920;-89
2024/03/09 08:10:46;;;;;;;38.13;17.80;;;;;;;9.65;49.00;100335.84;4920439;28;96821;-90
2024/03/09 08:13:13;;;;;;;;;;;;;;;9.64;48.96;100334.09;4942048;28;100718;-93
2024/03/09 08:15:38;;;;;;;37.42;17.88;;;;;;;9.68;49.03;100335.88;4944737;28;96782;-90
2024/03/09 08:18:07;;;;;;;39.85;17.55;;;;;;;9.69;48.96;100345.41;4929115;28;96987;-89
2024/03/09 08:20:33;;;;;;;38.35;15.80;;;;;;;9.71;48.89;100335.88;4937231;28;96860;-90
2024/03/09 08:23:01;;;;;;;37.28;18.30;;;;;;;9.74;49.05;100335.91;4948008;28;100468;-90
2024/03/09 08:25:27;;;;;;;39.65;17.00;;;;;;;9.77;49.06;100328.13;4931257;28;100630;-89
2024/03/09 08:27:54;;;;;;;38.92;18.73;;;;;;;9.81;48.95;100327.28;4921450;28;96776;-92
2024/03/09 08:30:36;;;;;;;38.00;18.17;;;;;;;9.82;48.83;100320.34;4923335;28;96844;-91
2024/03/09 08:33:48;;;;;;;35.97;17.55;;;;;;;9.92;49.20;100329.97;4931901;28;97957;-92
2024/03/09 08:36:14;;;;;;;32.38;16.95;;;;;;;10.02;49.13;100325.72;4925700;28;98653;-93
2024/03/09 08:38:41;;;;;;;35.92;17.90;;;;;;;10.09;49.48;100312.72;4940097;28;96680;-90
2024/03/09 08:41:06;;;;;;;36.25;16.77;;;;;;;10.30;50.23;100316.28;4937674;28;96856;-93
2024/03/09 08:43:32;;;;;;;34.35;16.65;;;;;;;10.53;50.15;100316.44;4925488;28;97765;-93
2024/03/09 08:45:58;;;;;;;33.25;17.02;;;;;;;10.74;49.63;100313.03;4942569;28;100479;-91
2024/03/09 08:48:23;;;;;;;34.22;16.40;;;;;;;10.93;49.71;100313.13;4938789;28;96774;-93
2024/03/09 08:50:52;;;;;;;34.58;17.08;;;;;;;11.12;49.31;100309.66;4925330;28;97190;-94
2024/03/09 08:53:18;;;;;;;34.85;17.88;;;;;;;11.32;49.35;100316.63;4939101;28;100175;-91
2024/03/09 08:55:45;;;;;;;33.60;16.60;;;;;;;11.53;49.39;100313.19;4933562;28;100045;-88
2024/03/09 08:58:11;;;;;;;32.33;15.65;;;;;;;11.79;49.05;100305.34;4937280;28;96889;-91
2024/03/09 09:00:37;;;;;;;30.55;14.60;;;;;;;12.06;48.69;100301.81;4913628;28;96812;-88
2024/03/09 09:03:05;;;;;;;33.97;17.15;;;;;;;12.32;48.16;100298.28;4923631;28;100362;-90
2024/03/09 09:05:30;;;;;;;31.48;16.23;;;;;;;12.51;47.34;100293.84;4937354;28;98726;-89
2024/03/09 09:07:58;;;;;;;30.33;15.35;;;;;;;12.67;47.54;100287.66;4933955;28;97408;-89
2024/03/09 09:10:25;;;;;;;31.25;16.08;;;;;;;12.91;47.45;100272.72;4936362;28;96973;-90
2024/03/09 09:12:50;;;;;;;27.90;13.55;;;;;;;13.14;47.61;100272.56;4933406;28;100337;-88
2024/03/09 09:15:16;;;;;;;30.15;14.48;;;;;;;13.45;48.09;100275.81;4920723;28;99530;-90
2024/03/09 09:17:42;;;;;;;35.67;15.57;;;;;;;13.80;48.36;100273.78;4916267;28;96880;-90
2024/03/09 09:20:12;;;;;;;31.70;15.10;;;;;;;14.17;48.38;100271.66;4913582;28;97071;-88
2024/03/09 09:22:43;;;;;;;27.65;16.02;;;;;;;14.54;47.65;100276.44;4932018;28;100718;-92
2024/03/09 09:25:12;;;;;;;29.50;15.80;;;;;;;14.83;46.93;100273.47;4944576;28;99160;-93
2024/03/09 09:27:43;;;;;;;28.02;14.90;;;;;;;14.98;45.22;100275.00;4923916;28;96890;-92
2024/03/09 09:30:08;;;;;;;33.85;13.60;;;;;;;15.02;44.38;100273.19;4940945;28;96975;-91
2024/03/09 09:32:34;;;;;;;27.63;15.68;;;;;;;15.05;43.74;100267.91;4954842;28;100512;-93
2024/03/09 09:35:02;;;;;;;27.35;14.32;;;;;;;15.07;43.74;100278.38;4941513;28;100252;-93
2024/03/09 09:37:28;;;;;;;28.40;14.55;;;;;;;15.09;43.33;100271.34;4940122;28;96989;-91
2024/03/09 09:39:55;;;;;;;27.75;14.15;;;;;;;15.16;43.47;100272.97;4921771;28;96957;-91
2024/03/09 09:42:29;;;;;;;29.85;15.65;;;;;;;15.27;43.48;100267.56;4926586;28;100718;-93
2024/03/09 09:44:56;;;;;;;30.40;16.20;;;;;;;15.36;43.40;100256.91;4922912;28;100107;-93
2024/03/09 09:47:25;;;;;;;29.90;17.10;;;;;;;15.46;43.29;100249.75;4943362;28;96680;-93
2024/03/09 09:49:53;;;;;;;27.58;15.07;;;;;;;15.57;43.21;100251.28;4940798;28;96814;-94
2024/03/09 09:52:23;;;;;;;27.10;14.65;;;;;;;15.69;42.68;100249.34;4925735;28;99409;-94
2024/03/09 09:54:54;;;;;;;28.40;16.25;;;;;;;15.79;43.09;100246.53;4923275;28;99200;-94
2024/03/09 09:57:20;;;;;;;30.45;16.27;;;;;;;15.98;43.68;100247.03;4941854;28;97279;-94
2024/03/09 09:59:46;;;;;;;26.30;13.80;;;;;;;16.22;43.26;100238.69;4944417;28;96846;-93
2024/03/09 10:02:12;;;;;;;26.05;13.82;;;;;;;16.40;42.87;100232.19;4929037;28;100412;-93
2024/03/09 10:04:38;;;;;;;27.40;15.95;;;;;;;16.54;42.32;100235.38;4927875;28;98792;-93
2024/03/09 10:07:08;;;;;;;25.92;13.45;;;;;;;16.69;42.42;100231.56;4926085;28;96722;-94
2024/03/09 10:09:35;;;;;;;28.15;15.57;;;;;;;16.85;41.35;100230.34;4939242;28;96851;-93
2024/03/09 10:12:02;;;;;;;27.73;14.55;;;;;;;16.87;41.22;100223.25;4931853;28;100284;-95
2024/03/09 10:14:31;;;;;;;26.52;15.75;;;;;;;16.93;41.04;100225.78;4937938;28;100293;-94
2024/03/09 10:17:09;;;;;;;23.70;13.35;;;;;;;17.00;40.56;100221.19;4925659;28;96829;-94
2024/03/09 10:19:36;;;;;;;24.63;14.32;;;;;;;17.03;40.28;100217.66;4945348;28;96879;-91
2024/03/09 10:22:02;;;;;;;27.98;13.32;;;;;;;17.10;40.28;100217.44;4938131;28;99060;-94
2024/03/09 10:24:28;;;;;;;25.58;14.38;;;;;;;17.15;39.97;100209.44;4925720;28;98155;-91
2024/03/09 10:26:54;;;;;;;25.40;14.95;;;;;;;17.20;39.94;100207.56;4922905;28;96765;-90
2024/03/09 10:29:21;;;;;;;23.67;13.13;;;;;;;17.26;40.05;100201.25;4921337;28;96883;-90
2024/03/09 10:31:50;;;;;;;24.30;13.07;;;;;;;17.34;39.82;100187.88;4927169;28;100374;-90
2024/03/09 10:34:16;;;;;;;23.00;12.02;;;;;;;17.41;40.03;100187.66;4919658;28;100498;-90
2024/03/09 10:36:43;;;;;;;26.90;15.52;;;;;;;17.56;40.62;100194.31;4916965;28;96854;-91
2024/03/09 10:39:09;;;;;;;23.77;12.77;;;;;;;17.72;40.30;100205.34;4925554;28;97145;-88
2024/03/09 10:41:35;;;;;;;24.08;13.07;;;;;;;17.83;39.68;100199.75;4936791;28;100436;-91
2024/03/09 10:44:02;;;;;;;26.40;14.18;;;;;;;17.95;40.03;100191.53;4938891;28;99155;-90
2024/03/09 10:46:29;;;;;;;26.30;13.00;;;;;;;18.13;40.05;100181.34;4924744;28;97094;-91
2024/03/09 10:48:57;;;;;;;24.48;13.57;;;;;;;18.29;39.51;100172.09;4924792;28;97307;-91
2024/03/09 10:51:41;;;;;;;25.42;14.57;;;;;;;18.49;39.58;100181.16;4919901;28;100577;-90
2024/03/09 10:54:17;;;;;;;25.13;14.32;;;;;;;18.64;39.44;100173.63;4935717;28;100329;-90
2024/03/09 10:56:46;;;;;;;24.35;14.65;;;;;;;18.87;39.71;100172.06;4939043;28;96722;-94
2024/03/09 10:59:15;;;;;;;;;;;;;;;19.16;40.73;100171.09;4937898;28;96782;-92
2024/03/09 11:01:56;;;;;;;23.33;13.38;;;;;;;19.50;39.43;100161.13;4936828;28;99938;-92
2024/03/09 11:04:25;;;;;;;23.45;13.77;;;;;;;19.67;38.49;100158.75;4924031;28;100384;-92
2024/03/09 11:06:51;;;;;;;20.35;10.85;;;;;;;19.87;38.14;100155.41;4934551;28;96704;-92
2024/03/09 11:09:29;;;;;;;21.38;11.75;;;;;;;20.07;37.51;100153.78;4919074;28;97018;-90
2024/03/09 11:11:59;;;;;;;24.27;13.00;;;;;;;20.02;36.81;100153.09;4933894;28;99539;-91
2024/03/09 11:14:25;;;;;;;23.08;13.60;;;;;;;20.10;36.95;100151.03;4930718;28;100416;-91
2024/03/09 11:16:52;;;;;;;21.33;13.25;;;;;;;20.25;36.69;100150.47;4949096;28;96748;-89
2024/03/09 11:19:18;;;;;;;21.08;11.90;;;;;;;20.07;35.83;100145.84;4917570;28;96870;-90
2024/03/09 11:21:46;;;;;;;22.63;13.60;;;;;;;19.77;35.20;100156.69;4914515;28;100003;-89
2024/03/09 11:24:14;;;;;;;21.70;12.18;;;;;;;19.39;35.49;100158.84;4916669;28;100062;-89